sensor_id;sensor_type;location;lat;lon;timestamp;P1;durP1;ratioP1;P2;durP2;ratioP2
28958;SDS011;16066;0.000;0.000;2023-07-08T05:30:13;6.20;;;3.97;;
28958;SDS011;16066;0.000;0.000;2023-07-08T05:32:41;5.67;;;4.10;;
28958;SDS011;16066;0.000;0.000;2023-07-08T05:35:07;6.70;;;3.90;;
28958;SDS011;16066;0.000;0.000;2023-07-08T05:37:32;6.53;;;3.70;;
28958;SDS011;16066;0.000;0.000;2023-07-08T05:39:58;5.53;;;3.67;;
28958;SDS011;16066;0.000;0.000;2023-07-08T05:42:27;5.70;;;3.70;;
28958;SDS011;16066;0.000;0.000;2023-07-08T05:44:53;4.63;;;4.07;;
28958;SDS011;16066;0.000;0.000;2023-07-08T05:47:19;3.67;;;2.83;;
28958;SDS011;16066;0.000;0.000;2023-07-08T05:49:46;5.07;;;3.37;;
28958;SDS011;16066;0.000;0.000;2023-07-08T05:52:12;4.50;;;3.40;;
28958;SDS011;16066;0.000;0.000;2023-07-08T05:54:37;4.87;;;3.27;;
28958;SDS011;16066;0.000;0.000;2023-07-08T05:57:04;5.50;;;3.70;;
28958;SDS011;16066;0.000;0.000;2023-07-08T05:59:31;4.03;;;3.30;;
28958;SDS011;16066;0.000;0.000;2023-07-08T06:01:57;4.67;;;3.43;;
28958;SDS011;16066;0.000;0.000;2023-07-08T06:04:22;5.10;;;3.70;;
28958;SDS011;16066;0.000;0.000;2023-07-08T06:06:48;3.60;;;3.17;;
28958;SDS011;16066;0.000;0.000;2023-07-08T06:09:13;3.90;;;3.00;;
28958;SDS011;16066;0.000;0.000;2023-07-08T06:11:39;4.37;;;3.20;;
28958;SDS011;16066;0.000;0.000;2023-07-08T06:14:04;4.27;;;3.27;;
28958;SDS011;16066;0.000;0.000;2023-07-08T06:16:30;3.90;;;3.37;;
28958;SDS011;16066;0.000;0.000;2023-07-08T06:18:56;3.50;;;2.90;;
28958;SDS011;16066;0.000;0.000;2023-07-08T06:21:22;3.80;;;2.97;;
28958;SDS011;16066;0.000;0.000;2023-07-08T06:23:48;4.07;;;3.37;;
28958;SDS011;16066;0.000;0.000;2023-07-08T06:26:14;3.80;;;2.97;;
28958;SDS011;16066;0.000;0.000;2023-07-08T06:28:39;3.97;;;3.43;;
28958;SDS011;16066;0.000;0.000;2023-07-08T06:31:05;4.53;;;3.20;;
28958;SDS011;16066;0.000;0.000;2023-07-08T06:33:30;4.23;;;3.30;;
28958;SDS011;16066;0.000;0.000;2023-07-08T06:35:56;4.77;;;3.60;;
28958;SDS011;16066;0.000;0.000;2023-07-08T06:38:21;3.93;;;3.53;;
28958;SDS011;16066;0.000;0.000;2023-07-08T06:40:47;5.23;;;2.80;;
28958;SDS011;16066;0.000;0.000;2023-07-08T06:43:12;3.90;;;3.10;;
28958;SDS011;16066;0.000;0.000;2023-07-08T06:45:38;11.40;;;3.27;;
28958;SDS011;16066;0.000;0.000;2023-07-08T06:48:05;11.30;;;3.87;;
28958;SDS011;16066;0.000;0.000;2023-07-08T06:50:31;6.40;;;4.00;;
28958;SDS011;16066;0.000;0.000;2023-07-08T06:52:57;4.20;;;3.43;;
28958;SDS011;16066;0.000;0.000;2023-07-08T06:55:23;5.33;;;3.37;;
28958;SDS011;16066;0.000;0.000;2023-07-08T06:57:48;4.77;;;3.20;;
28958;SDS011;16066;0.000;0.000;2023-07-08T07:00:14;3.00;;;2.67;;
28958;SDS011;16066;0.000;0.000;2023-07-08T07:02:40;5.77;;;3.40;;
28958;SDS011;16066;0.000;0.000;2023-07-08T07:05:05;4.90;;;3.30;;
28958;SDS011;16066;0.000;0.000;2023-07-08T07:07:32;6.47;;;3.20;;
28958;SDS011;16066;0.000;0.000;2023-07-08T07:09:59;5.27;;;2.90;;
28958;SDS011;16066;0.000;0.000;2023-07-08T07:12:24;6.53;;;3.30;;
28958;SDS011;16066;0.000;0.000;2023-07-08T07:14:51;5.80;;;3.40;;
28958;SDS011;16066;0.000;0.000;2023-07-08T07:17:21;4.50;;;3.47;;
28958;SDS011;16066;0.000;0.000;2023-07-08T07:19:48;5.30;;;3.70;;
28958;SDS011;16066;0.000;0.000;2023-07-08T07:22:14;5.80;;;3.47;;
28958;SDS011;16066;0.000;0.000;2023-07-08T07:24:40;5.57;;;3.50;;
28958;SDS011;16066;0.000;0.000;2023-07-08T07:27:06;5.57;;;3.60;;
28958;SDS011;16066;0.000;0.000;2023-07-08T07:29:43;4.63;;;3.70;;
28958;SDS011;16066;0.000;0.000;2023-07-08T07:32:13;10.53;;;3.30;;
28958;SDS011;16066;0.000;0.000;2023-07-08T07:34:39;8.23;;;3.63;;
28958;SDS011;16066;0.000;0.000;2023-07-08T07:37:06;6.13;;;4.03;;
28958;SDS011;16066;0.000;0.000;2023-07-08T07:39:35;6.67;;;3.43;;
28958;SDS011;16066;0.000;0.000;2023-07-08T07:42:00;9.20;;;4.10;;
28958;SDS011;16066;0.000;0.000;2023-07-08T07:44:26;5.87;;;3.77;;
28958;SDS011;16066;0.000;0.000;2023-07-08T07:46:52;6.37;;;3.10;;
28958;SDS011;16066;0.000;0.000;2023-07-08T07:49:19;20.87;;;3.80;;
28958;SDS011;16066;0.000;0.000;2023-07-08T07:51:44;5.50;;;3.90;;
28958;SDS011;16066;0.000;0.000;2023-07-08T07:54:10;5.47;;;3.97;;
28958;SDS011;16066;0.000;0.000;2023-07-08T07:56:36;7.03;;;3.60;;
28958;SDS011;16066;0.000;0.000;2023-07-08T07:59:02;6.23;;;3.37;;
28958;SDS011;16066;0.000;0.000;2023-07-08T08:01:28;8.93;;;3.80;;
28958;SDS011;16066;0.000;0.000;2023-07-08T08:03:53;6.13;;;3.70;;
28958;SDS011;16066;0.000;0.000;2023-07-08T08:06:19;6.17;;;3.73;;
28958;SDS011;16066;0.000;0.000;2023-07-08T08:08:44;8.67;;;4.03;;
28958;SDS011;16066;0.000;0.000;2023-07-08T08:11:10;10.60;;;4.37;;
28958;SDS011;16066;0.000;0.000;2023-07-08T08:13:37;8.27;;;4.00;;
28958;SDS011;16066;0.000;0.000;2023-07-08T08:16:04;7.13;;;3.80;;
28958;SDS011;16066;0.000;0.000;2023-07-08T08:18:30;6.93;;;4.00;;
28958;SDS011;16066;0.000;0.000;2023-07-08T08:20:56;7.70;;;3.60;;
28958;SDS011;16066;0.000;0.000;2023-07-08T08:23:21;9.00;;;3.50;;
28958;SDS011;16066;0.000;0.000;2023-07-08T08:25:47;13.33;;;4.30;;
28958;SDS011;16066;0.000;0.000;2023-07-08T08:28:12;4.77;;;3.70;;
28958;SDS011;16066;0.000;0.000;2023-07-08T08:30:38;9.73;;;4.07;;
28958;SDS011;16066;0.000;0.000;2023-07-08T08:33:04;6.40;;;4.13;;
28958;SDS011;16066;0.000;0.000;2023-07-08T08:35:30;7.70;;;4.20;;
28958;SDS011;16066;0.000;0.000;2023-07-08T08:37:55;9.97;;;3.73;;
28958;SDS011;16066;0.000;0.000;2023-07-08T08:40:21;7.43;;;3.43;;
28958;SDS011;16066;0.000;0.000;2023-07-08T08:45:18;7.40;;;4.00;;
28958;SDS011;16066;0.000;0.000;2023-07-08T08:47:47;8.37;;;4.20;;
28958;SDS011;16066;0.000;0.000;2023-07-08T08:52:52;7.57;;;3.90;;
28958;SDS011;16066;0.000;0.000;2023-07-08T08:55:20;11.67;;;3.80;;
28958;SDS011;16066;0.000;0.000;2023-07-08T08:57:57;6.27;;;4.13;;
28958;SDS011;16066;0.000;0.000;2023-07-08T09:00:45;13.27;;;4.27;;
28958;SDS011;16066;0.000;0.000;2023-07-08T09:03:21;7.60;;;3.97;;
28958;SDS011;16066;0.000;0.000;2023-07-08T09:06:09;9.33;;;4.47;;
28958;SDS011;16066;0.000;0.000;2023-07-08T09:08:46;13.13;;;4.50;;
28958;SDS011;16066;0.000;0.000;2023-07-08T09:14:14;6.63;;;4.27;;
28958;SDS011;16066;0.000;0.000;2023-07-08T09:25:45;8.07;;;4.70;;
28958;SDS011;16066;0.000;0.000;2023-07-08T09:28:34;5.70;;;3.47;;
28958;SDS011;16066;0.000;0.000;2023-07-08T09:31:05;5.53;;;4.20;;
28958;SDS011;16066;0.000;0.000;2023-07-08T09:33:32;6.83;;;4.30;;
28958;SDS011;16066;0.000;0.000;2023-07-08T09:35:59;7.70;;;4.30;;
28958;SDS011;16066;0.000;0.000;2023-07-08T09:38:25;8.17;;;4.20;;
28958;SDS011;16066;0.000;0.000;2023-07-08T09:40:51;7.00;;;4.17;;
28958;SDS011;16066;0.000;0.000;2023-07-08T09:43:24;6.07;;;4.30;;
28958;SDS011;16066;0.000;0.000;2023-07-08T09:45:51;10.23;;;4.27;;
28958;SDS011;16066;0.000;0.000;2023-07-08T09:48:33;5.43;;;3.47;;
28958;SDS011;16066;0.000;0.000;2023-07-08T09:51:00;5.17;;;3.70;;
28958;SDS011;16066;0.000;0.000;2023-07-08T09:53:26;6.10;;;3.63;;
28958;SDS011;16066;0.000;0.000;2023-07-08T09:55:53;6.57;;;4.03;;
28958;SDS011;16066;0.000;0.000;2023-07-08T09:58:32;6.17;;;4.20;;
28958;SDS011;16066;0.000;0.000;2023-07-08T10:01:08;4.60;;;3.27;;
28958;SDS011;16066;0.000;0.000;2023-07-08T10:03:35;5.43;;;3.77;;
28958;SDS011;16066;0.000;0.000;2023-07-08T10:06:03;6.90;;;4.00;;
28958;SDS011;16066;0.000;0.000;2023-07-08T10:08:36;4.70;;;3.20;;
28958;SDS011;16066;0.000;0.000;2023-07-08T10:13:54;6.10;;;3.33;;
28958;SDS011;16066;0.000;0.000;2023-07-08T10:16:34;5.50;;;3.67;;
28958;SDS011;16066;0.000;0.000;2023-07-08T10:19:00;9.23;;;3.97;;
28958;SDS011;16066;0.000;0.000;2023-07-08T10:26:52;11.77;;;4.23;;
28958;SDS011;16066;0.000;0.000;2023-07-08T10:30:03;6.03;;;3.50;;
28958;SDS011;16066;0.000;0.000;2023-07-08T10:35:39;5.50;;;3.47;;
28958;SDS011;16066;0.000;0.000;2023-07-08T10:41:05;6.43;;;3.67;;
28958;SDS011;16066;0.000;0.000;2023-07-08T10:49:39;6.33;;;3.60;;
28958;SDS011;16066;0.000;0.000;2023-07-08T11:00:45;6.43;;;3.03;;
28958;SDS011;16066;0.000;0.000;2023-07-08T11:03:45;5.67;;;3.50;;
28958;SDS011;16066;0.000;0.000;2023-07-08T11:06:22;4.70;;;3.50;;
28958;SDS011;16066;0.000;0.000;2023-07-08T11:08:54;6.40;;;3.63;;
28958;SDS011;16066;0.000;0.000;2023-07-08T11:13:53;6.60;;;3.73;;
28958;SDS011;16066;0.000;0.000;2023-07-08T11:16:29;7.30;;;3.50;;
28958;SDS011;16066;0.000;0.000;2023-07-08T11:21:49;5.77;;;3.43;;
28958;SDS011;16066;0.000;0.000;2023-07-08T11:24:30;5.20;;;2.90;;
28958;SDS011;16066;0.000;0.000;2023-07-08T11:27:08;7.20;;;3.03;;
28958;SDS011;16066;0.000;0.000;2023-07-08T11:29:48;3.50;;;2.87;;
28958;SDS011;16066;0.000;0.000;2023-07-08T11:32:18;5.97;;;3.20;;
28958;SDS011;16066;0.000;0.000;2023-07-08T11:34:46;5.50;;;3.57;;
28958;SDS011;16066;0.000;0.000;2023-07-08T11:37:15;5.03;;;3.40;;
28958;SDS011;16066;0.000;0.000;2023-07-08T11:39:44;3.90;;;3.03;;
28958;SDS011;16066;0.000;0.000;2023-07-08T11:42:23;4.60;;;3.63;;
28958;SDS011;16066;0.000;0.000;2023-07-08T11:44:57;9.30;;;3.13;;
28958;SDS011;16066;0.000;0.000;2023-07-08T11:47:25;3.53;;;2.67;;
28958;SDS011;16066;0.000;0.000;2023-07-08T11:50:25;7.33;;;3.80;;
28958;SDS011;16066;0.000;0.000;2023-07-08T11:52:58;5.93;;;3.20;;
28958;SDS011;16066;0.000;0.000;2023-07-08T11:55:25;3.50;;;3.20;;
28958;SDS011;16066;0.000;0.000;2023-07-08T11:58:22;4.27;;;3.50;;
28958;SDS011;16066;0.000;0.000;2023-07-08T12:00:59;7.23;;;3.23;;
28958;SDS011;16066;0.000;0.000;2023-07-08T12:03:31;5.17;;;3.30;;
28958;SDS011;16066;0.000;0.000;2023-07-08T12:08:52;5.43;;;3.00;;
28958;SDS011;16066;0.000;0.000;2023-07-08T12:11:24;4.97;;;3.33;;
28958;SDS011;16066;0.000;0.000;2023-07-08T12:13:53;7.80;;;3.43;;
28958;SDS011;16066;0.000;0.000;2023-07-08T12:16:20;7.27;;;3.27;;
28958;SDS011;16066;0.000;0.000;2023-07-08T12:18:47;7.13;;;3.13;;
28958;SDS011;16066;0.000;0.000;2023-07-08T12:21:14;4.03;;;3.10;;
28958;SDS011;16066;0.000;0.000;2023-07-08T12:23:47;7.43;;;4.40;;
28958;SDS011;16066;0.000;0.000;2023-07-08T12:26:13;12.50;;;5.87;;
28958;SDS011;16066;0.000;0.000;2023-07-08T12:28:39;15.83;;;8.47;;
28958;SDS011;16066;0.000;0.000;2023-07-08T12:31:10;11.83;;;7.83;;
28958;SDS011;16066;0.000;0.000;2023-07-08T12:33:43;17.97;;;10.40;;
28958;SDS011;16066;0.000;0.000;2023-07-08T12:36:10;25.20;;;11.00;;
28958;SDS011;16066;0.000;0.000;2023-07-08T12:38:41;18.50;;;11.30;;
28958;SDS011;16066;0.000;0.000;2023-07-08T12:41:12;20.33;;;11.23;;
28958;SDS011;16066;0.000;0.000;2023-07-08T12:43:40;17.23;;;10.33;;
28958;SDS011;16066;0.000;0.000;2023-07-08T12:46:06;22.70;;;10.27;;
28958;SDS011;16066;0.000;0.000;2023-07-08T12:48:35;22.20;;;11.47;;
28958;SDS011;16066;0.000;0.000;2023-07-08T12:51:05;26.23;;;13.90;;
28958;SDS011;16066;0.000;0.000;2023-07-08T12:53:35;45.80;;;22.90;;
28958;SDS011;16066;0.000;0.000;2023-07-08T12:56:01;47.40;;;24.43;;
28958;SDS011;16066;0.000;0.000;2023-07-08T12:58:27;43.40;;;22.90;;
28958;SDS011;16066;0.000;0.000;2023-07-08T13:00:55;40.60;;;21.53;;
28958;SDS011;16066;0.000;0.000;2023-07-08T13:03:23;49.17;;;24.93;;
28958;SDS011;16066;0.000;0.000;2023-07-08T13:05:52;48.50;;;24.93;;
28958;SDS011;16066;0.000;0.000;2023-07-08T13:08:21;45.70;;;25.67;;
28958;SDS011;16066;0.000;0.000;2023-07-08T13:10:50;46.87;;;21.23;;
28958;SDS011;16066;0.000;0.000;2023-07-08T13:13:21;47.07;;;22.27;;
28958;SDS011;16066;0.000;0.000;2023-07-08T13:15:49;42.17;;;21.37;;
28958;SDS011;16066;0.000;0.000;2023-07-08T13:18:16;36.97;;;20.33;;
28958;SDS011;16066;0.000;0.000;2023-07-08T13:20:59;39.33;;;19.60;;
28958;SDS011;16066;0.000;0.000;2023-07-08T13:23:26;37.87;;;17.30;;
28958;SDS011;16066;0.000;0.000;2023-07-08T13:25:53;35.80;;;17.27;;
28958;SDS011;16066;0.000;0.000;2023-07-08T13:28:26;28.40;;;15.73;;
28958;SDS011;16066;0.000;0.000;2023-07-08T13:30:54;23.43;;;13.43;;
28958;SDS011;16066;0.000;0.000;2023-07-08T13:33:22;25.93;;;13.03;;
28958;SDS011;16066;0.000;0.000;2023-07-08T13:35:48;23.63;;;12.60;;
28958;SDS011;16066;0.000;0.000;2023-07-08T13:38:16;20.13;;;10.93;;
28958;SDS011;16066;0.000;0.000;2023-07-08T13:40:47;21.90;;;11.03;;
28958;SDS011;16066;0.000;0.000;2023-07-08T13:43:16;19.20;;;9.97;;
28958;SDS011;16066;0.000;0.000;2023-07-08T13:45:49;22.33;;;10.17;;
28958;SDS011;16066;0.000;0.000;2023-07-08T13:48:19;19.53;;;10.23;;
28958;SDS011;16066;0.000;0.000;2023-07-08T13:51:07;18.73;;;9.47;;
28958;SDS011;16066;0.000;0.000;2023-07-08T13:56:09;15.70;;;10.20;;
28958;SDS011;16066;0.000;0.000;2023-07-08T13:58:48;15.37;;;8.37;;
28958;SDS011;16066;0.000;0.000;2023-07-08T14:03:46;14.30;;;7.67;;
28958;SDS011;16066;0.000;0.000;2023-07-08T14:06:15;18.60;;;7.40;;
28958;SDS011;16066;0.000;0.000;2023-07-08T14:08:42;16.03;;;8.33;;
28958;SDS011;16066;0.000;0.000;2023-07-08T14:11:08;15.57;;;7.70;;
28958;SDS011;16066;0.000;0.000;2023-07-08T14:13:33;16.83;;;6.10;;
28958;SDS011;16066;0.000;0.000;2023-07-08T14:15:59;12.17;;;6.07;;
28958;SDS011;16066;0.000;0.000;2023-07-08T14:18:26;10.03;;;5.90;;
28958;SDS011;16066;0.000;0.000;2023-07-08T14:20:51;11.03;;;5.70;;
28958;SDS011;16066;0.000;0.000;2023-07-08T14:23:18;12.80;;;5.53;;
28958;SDS011;16066;0.000;0.000;2023-07-08T14:25:44;10.53;;;5.17;;
28958;SDS011;16066;0.000;0.000;2023-07-08T14:28:10;8.37;;;4.67;;
28958;SDS011;16066;0.000;0.000;2023-07-08T14:30:38;11.27;;;5.80;;
28958;SDS011;16066;0.000;0.000;2023-07-08T14:33:10;13.40;;;5.10;;
28958;SDS011;16066;0.000;0.000;2023-07-08T14:35:36;9.87;;;5.33;;
28958;SDS011;16066;0.000;0.000;2023-07-08T14:38:01;10.33;;;5.13;;
28958;SDS011;16066;0.000;0.000;2023-07-08T14:40:34;14.20;;;5.13;;
28958;SDS011;16066;0.000;0.000;2023-07-08T14:43:05;8.10;;;4.80;;
28958;SDS011;16066;0.000;0.000;2023-07-08T14:45:46;7.93;;;4.40;;
28958;SDS011;16066;0.000;0.000;2023-07-08T14:48:14;7.90;;;4.97;;
28958;SDS011;16066;0.000;0.000;2023-07-08T14:50:40;10.10;;;5.17;;
28958;SDS011;16066;0.000;0.000;2023-07-08T14:53:06;10.47;;;4.43;;
28958;SDS011;16066;0.000;0.000;2023-07-08T14:55:32;8.10;;;5.10;;
28958;SDS011;16066;0.000;0.000;2023-07-08T14:57:58;9.57;;;4.77;;
28958;SDS011;16066;0.000;0.000;2023-07-08T15:00:25;7.27;;;5.10;;
28958;SDS011;16066;0.000;0.000;2023-07-08T15:02:51;8.13;;;4.33;;
28958;SDS011;16066;0.000;0.000;2023-07-08T15:05:21;8.40;;;5.00;;
28958;SDS011;16066;0.000;0.000;2023-07-08T15:07:52;9.37;;;4.63;;
28958;SDS011;16066;0.000;0.000;2023-07-08T15:10:19;8.20;;;4.17;;
28958;SDS011;16066;0.000;0.000;2023-07-08T15:12:47;7.63;;;4.30;;
28958;SDS011;16066;0.000;0.000;2023-07-08T15:15:14;8.30;;;4.63;;
28958;SDS011;16066;0.000;0.000;2023-07-08T15:17:43;6.80;;;4.60;;
28958;SDS011;16066;0.000;0.000;2023-07-08T15:20:12;14.80;;;4.53;;
28958;SDS011;16066;0.000;0.000;2023-07-08T15:22:39;8.73;;;4.57;;
28958;SDS011;16066;0.000;0.000;2023-07-08T15:25:17;6.27;;;3.90;;
28958;SDS011;16066;0.000;0.000;2023-07-08T15:27:44;6.73;;;3.93;;
28958;SDS011;16066;0.000;0.000;2023-07-08T15:30:23;6.43;;;4.30;;
28958;SDS011;16066;0.000;0.000;2023-07-08T15:32:51;6.20;;;3.70;;
28958;SDS011;16066;0.000;0.000;2023-07-08T15:35:19;6.60;;;4.60;;
28958;SDS011;16066;0.000;0.000;2023-07-08T15:37:49;4.57;;;3.63;;
28958;SDS011;16066;0.000;0.000;2023-07-08T15:40:16;10.10;;;4.37;;
28958;SDS011;16066;0.000;0.000;2023-07-08T15:42:47;6.30;;;3.80;;
28958;SDS011;16066;0.000;0.000;2023-07-08T15:45:24;5.20;;;3.40;;
28958;SDS011;16066;0.000;0.000;2023-07-08T15:47:51;6.40;;;3.70;;
28958;SDS011;16066;0.000;0.000;2023-07-08T15:50:17;8.13;;;3.67;;
28958;SDS011;16066;0.000;0.000;2023-07-08T15:52:45;5.73;;;3.40;;
28958;SDS011;16066;0.000;0.000;2023-07-08T15:55:12;4.93;;;3.27;;
28958;SDS011;16066;0.000;0.000;2023-07-08T15:57:48;7.07;;;4.40;;
28958;SDS011;16066;0.000;0.000;2023-07-08T16:00:21;7.97;;;3.33;;
28958;SDS011;16066;0.000;0.000;2023-07-08T16:02:53;6.80;;;4.00;;
28958;SDS011;16066;0.000;0.000;2023-07-08T16:05:24;7.77;;;3.63;;
28958;SDS011;16066;0.000;0.000;2023-07-08T16:07:51;7.47;;;3.60;;
28958;SDS011;16066;0.000;0.000;2023-07-08T16:10:18;5.00;;;3.20;;
28958;SDS011;16066;0.000;0.000;2023-07-08T16:12:44;9.83;;;4.00;;
28958;SDS011;16066;0.000;0.000;2023-07-08T16:15:15;6.83;;;3.73;;
28958;SDS011;16066;0.000;0.000;2023-07-08T16:17:44;5.60;;;3.47;;
28958;SDS011;16066;0.000;0.000;2023-07-08T16:20:15;5.47;;;3.67;;
28958;SDS011;16066;0.000;0.000;2023-07-08T16:22:42;5.07;;;3.40;;
28958;SDS011;16066;0.000;0.000;2023-07-08T16:25:11;11.97;;;3.70;;
28958;SDS011;16066;0.000;0.000;2023-07-08T16:27:42;5.93;;;3.63;;
28958;SDS011;16066;0.000;0.000;2023-07-08T16:30:14;5.07;;;3.40;;
28958;SDS011;16066;0.000;0.000;2023-07-08T16:32:41;7.10;;;3.93;;
28958;SDS011;16066;0.000;0.000;2023-07-08T16:35:08;10.03;;;3.80;;
28958;SDS011;16066;0.000;0.000;2023-07-08T16:37:36;6.60;;;3.30;;
28958;SDS011;16066;0.000;0.000;2023-07-08T16:40:01;8.90;;;3.70;;
28958;SDS011;16066;0.000;0.000;2023-07-08T16:42:28;6.17;;;3.43;;
28958;SDS011;16066;0.000;0.000;2023-07-08T16:44:54;7.10;;;3.50;;
28958;SDS011;16066;0.000;0.000;2023-07-08T16:47:19;10.07;;;3.73;;
28958;SDS011;16066;0.000;0.000;2023-07-08T16:49:45;7.97;;;4.00;;
28958;SDS011;16066;0.000;0.000;2023-07-08T16:52:11;8.80;;;3.33;;
28958;SDS011;16066;0.000;0.000;2023-07-08T16:54:39;7.30;;;3.90;;
28958;SDS011;16066;0.000;0.000;2023-07-08T16:57:07;5.50;;;3.30;;
28958;SDS011;16066;0.000;0.000;2023-07-08T16:59:36;12.10;;;4.50;;
28958;SDS011;16066;0.000;0.000;2023-07-08T17:02:02;6.87;;;4.00;;
28958;SDS011;16066;0.000;0.000;2023-07-08T17:04:34;7.70;;;3.40;;
28958;SDS011;16066;0.000;0.000;2023-07-08T17:07:00;5.10;;;3.60;;
28958;SDS011;16066;0.000;0.000;2023-07-08T17:09:26;5.70;;;3.57;;
28958;SDS011;16066;0.000;0.000;2023-07-08T17:11:51;11.17;;;4.80;;
28958;SDS011;16066;0.000;0.000;2023-07-08T17:14:17;5.07;;;3.20;;
28958;SDS011;16066;0.000;0.000;2023-07-08T17:16:43;4.90;;;3.20;;
28958;SDS011;16066;0.000;0.000;2023-07-08T17:19:12;6.50;;;3.23;;
28958;SDS011;16066;0.000;0.000;2023-07-08T17:21:38;6.23;;;3.33;;
28958;SDS011;16066;0.000;0.000;2023-07-08T17:24:04;13.33;;;4.10;;
28958;SDS011;16066;0.000;0.000;2023-07-08T17:26:29;8.33;;;3.10;;
28958;SDS011;16066;0.000;0.000;2023-07-08T17:28:55;6.10;;;3.73;;
28958;SDS011;16066;0.000;0.000;2023-07-08T17:31:21;6.17;;;3.30;;
28958;SDS011;16066;0.000;0.000;2023-07-08T17:33:49;7.60;;;3.27;;
28958;SDS011;16066;0.000;0.000;2023-07-08T17:36:27;5.30;;;3.80;;
28958;SDS011;16066;0.000;0.000;2023-07-08T17:38:56;8.83;;;3.70;;
28958;SDS011;16066;0.000;0.000;2023-07-08T17:41:22;8.83;;;3.00;;
28958;SDS011;16066;0.000;0.000;2023-07-08T17:43:48;5.67;;;3.67;;
28958;SDS011;16066;0.000;0.000;2023-07-08T17:46:15;7.63;;;3.30;;
28958;SDS011;16066;0.000;0.000;2023-07-08T17:48:43;5.67;;;3.90;;
28958;SDS011;16066;0.000;0.000;2023-07-08T17:51:19;8.03;;;3.67;;
28958;SDS011;16066;0.000;0.000;2023-07-08T17:53:47;8.40;;;3.50;;
28958;SDS011;16066;0.000;0.000;2023-07-08T17:56:19;4.60;;;3.53;;
28958;SDS011;16066;0.000;0.000;2023-07-08T17:58:54;6.43;;;3.13;;
28958;SDS011;16066;0.000;0.000;2023-07-08T18:01:21;4.63;;;3.63;;
28958;SDS011;16066;0.000;0.000;2023-07-08T18:03:48;6.10;;;3.87;;
28958;SDS011;16066;0.000;0.000;2023-07-08T18:06:14;7.87;;;3.53;;
28958;SDS011;16066;0.000;0.000;2023-07-08T18:08:40;7.73;;;3.00;;
28958;SDS011;16066;0.000;0.000;2023-07-08T18:11:07;5.93;;;3.40;;
28958;SDS011;16066;0.000;0.000;2023-07-08T18:13:38;7.50;;;3.47;;
28958;SDS011;16066;0.000;0.000;2023-07-08T18:16:18;4.40;;;2.80;;
28958;SDS011;16066;0.000;0.000;2023-07-08T18:18:44;8.90;;;3.77;;
28958;SDS011;16066;0.000;0.000;2023-07-08T18:21:14;6.30;;;3.40;;
28958;SDS011;16066;0.000;0.000;2023-07-08T18:23:41;7.70;;;3.30;;
28958;SDS011;16066;0.000;0.000;2023-07-08T18:26:17;5.10;;;3.50;;
28958;SDS011;16066;0.000;0.000;2023-07-08T18:28:45;8.20;;;2.90;;
28958;SDS011;16066;0.000;0.000;2023-07-08T18:31:11;5.27;;;2.60;;
28958;SDS011;16066;0.000;0.000;2023-07-08T18:33:38;3.77;;;3.30;;
28958;SDS011;16066;0.000;0.000;2023-07-08T18:36:05;6.10;;;3.20;;
28958;SDS011;16066;0.000;0.000;2023-07-08T18:38:34;6.43;;;2.60;;
28958;SDS011;16066;0.000;0.000;2023-07-08T18:41:00;4.17;;;2.97;;
28958;SDS011;16066;0.000;0.000;2023-07-08T18:43:25;6.57;;;3.60;;
28958;SDS011;16066;0.000;0.000;2023-07-08T18:45:52;4.20;;;3.07;;
28958;SDS011;16066;0.000;0.000;2023-07-08T18:48:19;4.10;;;3.23;;
28958;SDS011;16066;0.000;0.000;2023-07-08T18:50:47;5.93;;;3.40;;
28958;SDS011;16066;0.000;0.000;2023-07-08T18:53:18;4.80;;;3.40;;
28958;SDS011;16066;0.000;0.000;2023-07-08T18:55:44;3.93;;;2.90;;
28958;SDS011;16066;0.000;0.000;2023-07-08T18:58:11;5.80;;;3.90;;
28958;SDS011;16066;0.000;0.000;2023-07-08T19:00:37;5.43;;;3.40;;
28958;SDS011;16066;0.000;0.000;2023-07-08T19:03:05;5.50;;;3.60;;
28958;SDS011;16066;0.000;0.000;2023-07-08T19:05:43;8.40;;;4.07;;
28958;SDS011;16066;0.000;0.000;2023-07-08T19:08:09;4.90;;;3.73;;
28958;SDS011;16066;0.000;0.000;2023-07-08T19:10:34;6.67;;;4.00;;
28958;SDS011;16066;0.000;0.000;2023-07-08T19:13:00;6.23;;;3.37;;
28958;SDS011;16066;0.000;0.000;2023-07-08T19:15:30;4.10;;;3.53;;
28958;SDS011;16066;0.000;0.000;2023-07-08T19:17:57;5.10;;;3.50;;
28958;SDS011;16066;0.000;0.000;2023-07-08T19:20:28;5.53;;;3.23;;
28958;SDS011;16066;0.000;0.000;2023-07-08T19:22:58;4.87;;;3.77;;
28958;SDS011;16066;0.000;0.000;2023-07-08T19:25:25;4.70;;;3.37;;
28958;SDS011;16066;0.000;0.000;2023-07-08T19:27:51;7.13;;;4.27;;
28958;SDS011;16066;0.000;0.000;2023-07-08T19:30:17;6.13;;;3.43;;
28958;SDS011;16066;0.000;0.000;2023-07-08T19:32:45;4.83;;;3.30;;
28958;SDS011;16066;0.000;0.000;2023-07-08T19:35:15;5.30;;;3.40;;
28958;SDS011;16066;0.000;0.000;2023-07-08T19:37:43;5.57;;;2.70;;
28958;SDS011;16066;0.000;0.000;2023-07-08T19:40:09;4.60;;;3.30;;
28958;SDS011;16066;0.000;0.000;2023-07-08T19:42:40;4.30;;;2.90;;
28958;SDS011;16066;0.000;0.000;2023-07-08T19:45:14;4.13;;;3.17;;
28958;SDS011;16066;0.000;0.000;2023-07-08T19:47:40;3.60;;;2.83;;
28958;SDS011;16066;0.000;0.000;2023-07-08T19:50:07;4.53;;;3.37;;
28958;SDS011;16066;0.000;0.000;2023-07-08T19:52:34;3.70;;;3.03;;
28958;SDS011;16066;0.000;0.000;2023-07-08T19:54:59;5.30;;;3.73;;
28958;SDS011;16066;0.000;0.000;2023-07-08T19:57:25;6.03;;;3.23;;
28958;SDS011;16066;0.000;0.000;2023-07-08T19:59:53;3.57;;;2.70;;
28958;SDS011;16066;0.000;0.000;2023-07-08T20:02:18;4.37;;;3.07;;
28958;SDS011;16066;0.000;0.000;2023-07-08T20:04:44;5.93;;;3.33;;
28958;SDS011;16066;0.000;0.000;2023-07-08T20:07:13;5.50;;;3.13;;
28958;SDS011;16066;0.000;0.000;2023-07-08T20:09:39;5.80;;;3.20;;
28958;SDS011;16066;0.000;0.000;2023-07-08T20:12:09;3.63;;;2.50;;
28958;SDS011;16066;0.000;0.000;2023-07-08T20:14:37;5.93;;;3.53;;
28958;SDS011;16066;0.000;0.000;2023-07-08T20:17:03;3.00;;;2.70;;
28958;SDS011;16066;0.000;0.000;2023-07-08T20:19:29;3.43;;;2.60;;
28958;SDS011;16066;0.000;0.000;2023-07-08T20:21:55;3.40;;;2.73;;
28958;SDS011;16066;0.000;0.000;2023-07-08T20:24:20;4.97;;;2.83;;
28958;SDS011;16066;0.000;0.000;2023-07-08T20:26:46;6.37;;;2.90;;
28958;SDS011;16066;0.000;0.000;2023-07-08T20:29:16;5.50;;;2.80;;
28958;SDS011;16066;0.000;0.000;2023-07-08T20:31:42;6.13;;;3.50;;
28958;SDS011;16066;0.000;0.000;2023-07-08T20:34:09;5.20;;;2.70;;
28958;SDS011;16066;0.000;0.000;2023-07-08T20:36:35;4.60;;;3.33;;
28958;SDS011;16066;0.000;0.000;2023-07-08T20:39:01;5.27;;;3.10;;
28958;SDS011;16066;0.000;0.000;2023-07-08T20:41:26;6.17;;;3.00;;
28958;SDS011;16066;0.000;0.000;2023-07-08T20:43:52;3.53;;;2.93;;
28958;SDS011;16066;0.000;0.000;2023-07-08T20:46:21;4.53;;;3.37;;
28958;SDS011;16066;0.000;0.000;2023-07-08T20:48:50;3.90;;;2.90;;
28958;SDS011;16066;0.000;0.000;2023-07-08T20:51:18;4.37;;;3.00;;
28958;SDS011;16066;0.000;0.000;2023-07-08T20:53:43;3.77;;;2.70;;
28958;SDS011;16066;0.000;0.000;2023-07-08T20:56:51;4.90;;;3.10;;
28958;SDS011;16066;0.000;0.000;2023-07-08T20:58:58;3.93;;;2.97;;
28958;SDS011;16066;0.000;0.000;2023-07-08T21:01:25;9.37;;;2.90;;
28958;SDS011;16066;0.000;0.000;2023-07-08T21:03:51;4.20;;;3.00;;
28958;SDS011;16066;0.000;0.000;2023-07-08T21:06:21;4.37;;;3.20;;
28958;SDS011;16066;0.000;0.000;2023-07-08T21:08:48;4.30;;;3.20;;
28958;SDS011;16066;0.000;0.000;2023-07-08T21:11:14;4.00;;;2.77;;
28958;SDS011;16066;0.000;0.000;2023-07-08T21:13:40;3.57;;;2.60;;
28958;SDS011;16066;0.000;0.000;2023-07-08T21:16:24;3.20;;;2.73;;
28958;SDS011;16066;0.000;0.000;2023-07-08T21:18:51;2.90;;;2.50;;
28958;SDS011;16066;0.000;0.000;2023-07-08T21:21:19;3.80;;;3.20;;
28958;SDS011;16066;0.000;0.000;2023-07-08T21:23:45;3.33;;;2.73;;
28958;SDS011;16066;0.000;0.000;2023-07-08T21:26:16;4.37;;;2.80;;
28958;SDS011;16066;0.000;0.000;2023-07-08T21:28:55;3.13;;;2.60;;
28958;SDS011;16066;0.000;0.000;2023-07-08T21:31:23;3.13;;;2.50;;
28958;SDS011;16066;0.000;0.000;2023-07-08T21:33:49;5.87;;;2.80;;
28958;SDS011;16066;0.000;0.000;2023-07-08T21:36:25;2.63;;;2.43;;